Time;durP1;ratioP1;P1;durP2;ratioP2;P2;SDS_P1;SDS_P2;PMS_P1;PMS_P2;Temp;Humidity;BMP_temperature;BMP_pressure;BME280_temperature;BME280_humidity;BME280_pressure;Samples;Min_cycle;Max_cycle;Signal;HPM_P1;HPM_P2
2022/03/30 00:02:09;;;;;;;20.08;14.83;;;;;;;12.00;46.75;99029.66;2340364;84;25685;-78
2022/03/30 00:05:53;;;;;;;21.70;15.25;;;;;;;11.98;46.78;99024.86;2340161;84;25717;-77
2022/03/30 00:09:40;;;;;;;;;;;;;;;;;;;;;
2022/03/30 00:16:44;;;;;;;22.13;15.48;;;;;;;11.93;46.79;99022.28;2219377;87;25297;-75
2022/03/30 00:20:30;;;;;;;24.82;17.30;;;;;;;11.91;46.81;99024.45;2218868;88;25763;-76
2022/03/30 00:23:54;;;;;;;21.95;16.37;;;;;;;11.89;46.83;99020.56;2214462;89;25257;-77
2022/03/30 00:27:18;;;;;;;23.30;16.05;;;;;;;11.90;46.83;99022.73;2214198;89;26631;-76
2022/03/30 00:30:39;;;;;;;22.55;15.10;;;;;;;11.88;46.85;99020.55;2214628;89;25802;-76
2022/03/30 00:34:14;;;;;;;22.07;15.60;;;;;;;11.87;46.83;99024.91;2214453;89;25802;-76
2022/03/30 00:37:45;;;;;;;20.75;14.78;;;;;;;11.84;46.87;99023.61;2116012;92;26155;-77
2022/03/30 00:41:13;;;;;;;22.67;16.07;;;;;;;11.81;46.88;99016.64;2128273;92;25804;-77
2022/03/30 00:44:53;;;;;;;24.07;16.32;;;;;;;11.80;46.90;99015.33;2070520;91;25801;-75
2022/03/30 00:48:17;;;;;;;21.57;15.75;;;;;;;11.80;46.91;99009.66;2057723;95;25795;-75
2022/03/30 00:51:50;;;;;;;21.60;15.48;;;;;;;11.79;46.92;99005.33;2055719;94;25737;-77
2022/03/30 00:55:24;;;;;;;25.50;16.80;;;;;;;11.78;46.93;99006.66;2053516;95;25759;-75
2022/03/30 00:58:51;;;;;;;25.55;16.62;;;;;;;11.77;46.96;99008.36;2052548;95;25836;-75
2022/03/30 01:02:25;;;;;;;23.62;16.30;;;;;;;11.75;46.96;99007.52;2052462;95;25818;-75
2022/03/30 01:06:00;;;;;;;27.30;16.15;;;;;;;11.73;46.98;99004.03;2048895;95;25918;-76
2022/03/30 01:09:30;;;;;;;21.80;15.15;;;;;;;11.73;47.00;99009.25;2055542;95;25752;-78
2022/03/30 01:13:06;;;;;;;23.83;17.05;;;;;;;11.73;47.00;99003.17;2084041;93;25854;-77
2022/03/30 01:16:33;;;;;;;22.25;14.98;;;;;;;11.73;47.00;99006.64;2089322;92;25424;-77
2022/03/30 01:20:02;;;;;;;23.95;16.12;;;;;;;11.73;47.04;99007.09;2106554;90;25678;-77
2022/03/30 01:23:37;;;;;;;25.30;17.85;;;;;;;11.72;47.02;99004.92;2109193;91;25866;-76
2022/03/30 01:26:57;;;;;;;21.77;15.60;;;;;;;11.71;47.03;99000.98;2091612;93;25871;-75
2022/03/30 01:34:19;;;;;;;25.50;16.93;;;;;;;11.67;47.05;98988.83;2110831;92;25770;-76
2022/03/30 01:37:56;;;;;;;24.43;16.60;;;;;;;11.66;47.03;98986.66;2111259;93;25782;-75
2022/03/30 01:41:21;;;;;;;24.02;16.17;;;;;;;11.65;47.06;98986.23;2247315;84;25694;-76
2022/03/30 01:44:56;;;;;;;21.02;15.45;;;;;;;11.63;47.07;98981.44;2213874;88;25822;-78
2022/03/30 01:48:26;;;;;;;26.40;16.93;;;;;;;11.63;47.04;98981.44;2214373;86;25696;-78
2022/03/30 01:51:56;;;;;;;26.52;17.07;;;;;;;11.64;47.08;98973.17;2192775;89;25761;-76
2022/03/30 01:55:24;;;;;;;27.30;16.97;;;;;;;11.63;46.86;98967.09;2213896;89;25695;-77
2022/03/30 01:58:45;;;;;;;24.67;15.43;;;;;;;11.63;46.86;98967.09;2214650;86;25875;-77
2022/03/30 02:02:20;;;;;;;20.75;15.70;;;;;;;11.62;47.11;98965.80;2213910;89;25851;-77
2022/03/30 02:05:43;;;;;;;26.20;16.30;;;;;;;11.61;47.09;98964.94;2175135;91;25734;-78
2022/03/30 02:09:11;;;;;;;24.43;16.27;;;;;;;11.60;47.11;98957.95;2174752;89;25925;-76
2022/03/30 02:12:35;;;;;;;26.23;17.05;;;;;;;11.58;47.13;98954.06;2155332;91;25736;-77
2022/03/30 02:16:06;;;;;;;25.57;16.42;;;;;;;11.57;47.13;98954.05;2225000;88;25774;-77
2022/03/30 02:19:27;;;;;;;21.25;15.95;;;;;;;11.56;47.15;98938.83;2229054;88;25744;-76
2022/03/30 02:23:05;;;;;;;23.00;16.93;;;;;;;11.58;47.14;98942.77;2249577;87;25767;-77
2022/03/30 02:26:40;;;;;;;22.77;16.35;;;;;;;11.56;47.17;98936.66;2249978;87;25403;-76
2022/03/30 02:30:10;;;;;;;21.33;16.50;;;;;;;11.55;47.17;98938.85;2249393;87;25744;-77
2022/03/30 02:33:31;;;;;;;27.10;16.65;;;;;;;11.54;47.18;98938.40;2249207;88;25735;-76
2022/03/30 02:36:56;;;;;;;25.47;17.57;;;;;;;11.53;47.17;98933.63;2250041;87;30020;-77
2022/03/30 02:40:26;;;;;;;20.27;16.73;;;;;;;11.53;47.18;98931.45;2247511;86;25794;-75
2022/03/30 02:43:55;;;;;;;21.07;16.07;;;;;;;11.52;47.20;98927.98;2228254;87;26014;-76
2022/03/30 02:51:18;;;;;;;20.55;15.00;;;;;;;11.50;47.20;98925.80;2212772;88;25686;-77
2022/03/30 02:55:00;;;;;;;23.77;15.90;;;;;;;11.47;47.18;98917.12;2212856;89;25742;-75
2022/03/30 02:58:32;;;;;;;21.85;15.95;;;;;;;11.45;47.23;98918.44;2209577;89;26163;-75
2022/03/30 03:02:21;;;;;;;;;;;;;;;;;;;;;
2022/03/30 03:05:42;;;;;;;23.70;16.93;;;;;;;11.44;47.23;98919.73;2330868;84;25687;-76
2022/03/30 03:13:07;;;;;;;23.02;16.02;;;;;;;11.41;47.26;98918.47;2252902;87;25789;-77
2022/03/30 03:16:43;;;;;;;26.40;17.42;;;;;;;11.38;47.27;98918.03;2176946;90;25743;-75
2022/03/30 03:19:54;;;;;;;23.80;17.42;;;;;;;11.37;47.30;98921.94;2162871;90;25780;-75
2022/03/30 03:23:23;;;;;;;24.75;17.48;;;;;;;11.33;47.28;98915.42;2156200;90;25844;-76
2022/03/30 03:26:51;;;;;;;22.37;16.62;;;;;;;11.32;47.30;98913.69;2118894;93;25825;-75
2022/03/30 03:30:20;;;;;;;26.02;16.30;;;;;;;11.31;47.32;98909.36;2156597;90;29918;-75
2022/03/30 03:33:53;;;;;;;27.75;18.45;;;;;;;11.30;47.32;98913.26;2119144;93;25747;-75
2022/03/30 03:37:11;;;;;;;26.42;16.77;;;;;;;11.27;47.36;98909.34;2175871;90;25767;-76
2022/03/30 03:40:40;;;;;;;23.85;17.15;;;;;;;11.26;47.36;98907.62;2118900;93;25839;-76
2022/03/30 03:44:12;;;;;;;28.00;17.62;;;;;;;11.24;47.38;98914.61;2159348;90;25685;-77
2022/03/30 03:47:35;;;;;;;28.65;18.85;;;;;;;11.22;47.40;98915.03;2118691;91;25873;-77
2022/03/30 03:51:03;;;;;;;27.17;17.98;;;;;;;11.19;47.43;98913.29;2177383;90;25806;-76
2022/03/30 03:54:46;;;;;;;;;;;;;;;;;;;;;
2022/03/30 03:58:12;;;;;;;30.65;18.73;;;;;;;11.11;47.49;98909.84;2048147;96;26041;-76
2022/03/30 04:01:52;;;;;;;28.20;18.73;;;;;;;11.08;47.52;98896.81;1938773;102;25827;-75
2022/03/30 04:05:15;;;;;;;29.55;19.80;;;;;;;11.04;47.55;98900.30;1938932;102;25964;-75
2022/03/30 04:08:43;;;;;;;29.70;19.80;;;;;;;11.01;47.57;98901.61;1958840;100;25959;-76
2022/03/30 04:12:07;;;;;;;30.37;20.05;;;;;;;10.97;47.59;98900.75;1941267;98;25781;-75
2022/03/30 04:15:29;;;;;;;30.35;19.60;;;;;;;10.93;47.64;98900.73;2060783;96;25848;-77
2022/03/30 04:19:02;;;;;;;28.85;20.45;;;;;;;10.88;47.68;98900.31;2065071;94;25732;-74
2022/03/30 04:22:30;;;;;;;29.90;20.75;;;;;;;10.87;47.71;98905.55;2080219;93;25886;-74
2022/03/30 04:26:38;;;;;;;;;;;;;;;;;;;;;
2022/03/30 04:30:21;;;;;;;29.18;20.37;;;;;;;10.82;47.74;98908.14;2079713;93;25861;-75
2022/03/30 04:33:49;;;;;;;28.55;19.92;;;;;;;10.81;47.76;98898.59;2080256;95;25809;-76
2022/03/30 04:37:12;;;;;;;31.35;20.50;;;;;;;10.80;47.79;98905.98;2059868;96;26152;-75
2022/03/30 04:40:45;;;;;;;26.17;17.92;;;;;;;10.79;47.83;98903.36;2071678;93;25713;-78
2022/03/30 04:44:06;;;;;;;30.00;21.17;;;;;;;10.81;47.81;98904.24;2085289;90;25763;-77
2022/03/30 04:47:38;;;;;;;36.97;21.20;;;;;;;10.81;47.82;98909.45;2085456;94;31130;-76
2022/03/30 04:51:08;;;;;;;28.05;21.50;;;;;;;10.82;47.82;98907.27;2085440;94;25900;-76
2022/03/30 04:54:38;;;;;;;28.02;19.60;;;;;;;10.81;47.83;98906.85;2045203;93;25716;-76
2022/03/30 04:58:16;;;;;;;31.97;21.55;;;;;;;10.81;47.86;98905.55;2072735;94;25357;-75
2022/03/30 05:02:05;;;;;;;30.45;19.98;;;;;;;10.84;47.83;98907.72;2101338;93;25728;-75
2022/03/30 05:05:34;;;;;;;29.60;19.77;;;;;;;10.86;47.82;98910.30;2101278;90;25754;-76
2022/03/30 05:09:02;;;;;;;30.20;21.25;;;;;;;10.88;47.81;98905.53;2085997;94;26095;-76
2022/03/30 05:12:27;;;;;;;27.10;19.95;;;;;;;10.91;47.79;98905.11;2084301;92;25747;-76
2022/03/30 05:15:59;;;;;;;33.40;21.37;;;;;;;10.93;47.75;98913.77;2086707;92;25808;-75
2022/03/30 05:19:27;;;;;;;33.35;21.55;;;;;;;10.98;47.72;98909.00;2046640;93;25843;-75
2022/03/30 05:23:10;;;;;;;32.98;21.75;;;;;;;11.05;47.72;98921.59;2033403;95;25845;-77
2022/03/30 05:26:45;;;;;;;35.25;21.85;;;;;;;11.12;47.70;98919.40;2041609;95;25857;-75
2022/03/30 05:30:23;;;;;;;27.93;20.97;;;;;;;11.21;47.66;98922.44;2062343;94;26072;-75
2022/03/30 05:33:44;;;;;;;31.70;20.80;;;;;;;11.30;47.68;98925.86;2061777;92;25869;-76
2022/03/30 05:37:18;;;;;;;25.65;18.92;;;;;;;11.40;47.68;98927.14;2036704;97;25849;-78
2022/03/30 05:40:48;;;;;;;29.77;21.30;;;;;;;11.50;47.61;98935.38;2033465;94;25786;-76
2022/03/30 05:44:12;;;;;;;30.20;21.10;;;;;;;11.57;47.51;98935.34;2035508;97;25805;-77
2022/03/30 05:48:02;;;;;;;28.70;20.20;;;;;;;11.67;47.52;98930.95;2036581;97;25657;-75
2022/03/30 05:51:36;;;;;;;32.15;19.90;;;;;;;11.75;47.49;98934.86;2038130;96;25892;-76
2022/03/30 05:55:10;;;;;;;32.93;21.68;;;;;;;11.84;47.40;98940.05;2042364;92;26653;-78
2022/03/30 05:58:42;;;;;;;33.65;19.95;;;;;;;11.95;47.37;98946.11;2003774;97;27504;-77
2022/03/30 06:02:15;;;;;;;27.30;20.00;;;;;;;12.07;47.21;98939.94;2006298;95;25737;-77
2022/03/30 07:11:45;;;;;;;27.98;18.17;;;;;;;13.94;46.76;98952.66;2461872;80;25750;-76
2022/03/30 07:15:15;;;;;;;25.90;18.62;;;;;;;14.26;46.46;98952.66;2440845;79;25865;-75
2022/03/30 07:18:53;;;;;;;27.13;18.87;;;;;;;14.53;46.13;98961.45;2443720;79;25632;-75
2022/03/30 07:22:47;;;;;;;24.57;18.32;;;;;;;14.99;45.94;98962.03;2438866;80;25701;-73
2022/03/30 07:26:11;;;;;;;21.62;17.23;;;;;;;17.51;43.94;98970.55;2454024;79;25618;-73
2022/03/30 07:29:32;;;;;;;23.83;16.80;;;;;;;20.36;40.76;98972.28;2483824;79;25667;-75
2022/03/30 07:32:55;;;;;;;20.90;15.72;;;;;;;22.39;38.09;98976.00;2485100;78;25594;-74
2022/03/30 07:36:16;;;;;;;17.73;15.05;;;;;;;23.95;35.77;98985.46;2483975;79;25632;-73
2022/03/30 07:39:37;;;;;;;19.52;14.43;;;;;;;25.21;34.10;98991.78;2482895;79;25694;-78
2022/03/30 07:42:58;;;;;;;17.80;14.03;;;;;;;26.20;32.30;98998.27;2477459;79;25669;-79
2022/03/30 07:46:19;;;;;;;15.10;13.50;;;;;;;26.98;31.20;99000.44;2484674;79;25700;-78
2022/03/30 07:49:40;;;;;;;15.08;12.90;;;;;;;27.61;30.50;99003.80;2482947;79;25783;-77
2022/03/30 07:53:11;;;;;;;16.20;12.43;;;;;;;28.57;29.63;99008.22;2472664;79;25742;-79
2022/03/30 07:56:32;;;;;;;11.63;10.43;;;;;;;29.75;28.73;99007.47;2435861;80;25672;-77
2022/03/30 07:59:56;;;;;;;11.95;10.85;;;;;;;30.44;27.86;99007.91;2436619;80;25685;-76
2022/03/30 08:03:37;;;;;;;12.43;9.83;;;;;;;30.68;27.48;99014.01;2436690;79;25541;-75
2022/03/30 08:07:32;;;;;;;15.48;10.85;;;;;;;31.35;27.06;99018.37;2436902;81;25337;-78
2022/03/30 08:10:58;;;;;;;11.50;8.68;;;;;;;32.66;25.90;99026.83;2369186;81;25220;-77
2022/03/30 08:14:21;;;;;;;9.45;8.33;;;;;;;33.79;24.64;99030.45;2377072;83;25625;-78
2022/03/30 08:17:46;;;;;;;8.85;7.33;;;;;;;34.67;23.45;99031.91;2259019;86;25765;-81
2022/03/30 08:28:30;;;;;;;7.25;5.75;;;;;;;36.49;20.18;99046.95;2079663;93;25766;-79
2022/03/30 08:31:52;;;;;;;10.63;5.78;;;;;;;37.11;19.77;99044.29;2080002;93;25755;-78
2022/03/30 08:35:16;;;;;;;9.45;4.90;;;;;;;37.75;19.36;99045.90;2080160;95;25848;-74
2022/03/30 08:38:43;;;;;;;7.05;5.45;;;;;;;38.30;19.08;99043.45;2043372;93;25839;-74
2022/03/30 08:42:06;;;;;;;6.97;5.45;;;;;;;38.50;18.78;99042.05;2080199;95;25786;-79
2022/03/30 08:45:27;;;;;;;10.10;4.70;;;;;;;38.91;18.42;99043.26;2060947;95;25874;-76
2022/03/30 08:48:48;;;;;;;9.80;5.22;;;;;;;38.70;18.22;99036.52;2090404;94;25763;-75
2022/03/30 08:52:10;;;;;;;6.70;4.70;;;;;;;38.70;18.18;99037.04;2091728;94;25773;-75
2022/03/30 08:55:32;;;;;;;5.58;4.35;;;;;;;38.56;18.20;99037.79;2091240;94;25691;-78
2022/03/30 08:59:10;;;;;;;6.67;4.55;;;;;;;38.51;18.26;99038.33;2091557;94;25749;-73
2022/03/30 09:02:48;;;;;;;7.83;4.45;;;;;;;38.53;18.20;99038.98;2089565;93;26140;-75
2022/03/30 09:06:27;;;;;;;8.63;4.37;;;;;;;37.56;18.28;99042.16;2177351;90;25747;-75
2022/03/30 09:10:03;;;;;;;9.58;5.15;;;;;;;35.93;18.82;99036.37;2193412;88;25814;-76
2022/03/30 09:13:28;;;;;;;7.30;4.55;;;;;;;34.84;17.48;99004.52;2213214;86;25372;-74
2022/03/30 09:16:59;;;;;;;9.65;4.78;;;;;;;34.05;17.17;99025.28;2266123;86;25789;-73
2022/03/30 09:20:23;;;;;;;10.45;5.65;;;;;;;33.39;17.27;99020.14;2265597;87;26525;-75
2022/03/30 09:23:47;;;;;;;14.28;5.80;;;;;;;31.95;16.80;99014.64;2223211;87;25701;-78
2022/03/30 09:27:11;;;;;;;11.80;6.35;;;;;;;30.44;16.19;99014.62;2266263;86;25647;-73
2022/03/30 09:30:38;;;;;;;8.30;5.70;;;;;;;28.77;16.57;99009.45;2290478;82;25734;-73
2022/03/30 09:34:09;;;;;;;12.30;7.62;;;;;;;27.47;16.80;98998.05;2318942;82;25696;-73
2022/03/30 09:37:33;;;;;;;11.38;5.53;;;;;;;26.20;17.75;98991.59;2387430;81;26023;-76
2022/03/30 09:41:05;;;;;;;11.20;5.22;;;;;;;25.44;18.58;98994.43;2387348;81;25649;-73
2022/03/30 09:44:56;;;;;;;8.85;5.30;;;;;;;24.83;19.76;98980.17;2339962;83;25637;-73
2022/03/30 09:48:25;;;;;;;11.20;6.03;;;;;;;23.87;19.60;98985.50;2346579;82;25506;-73
2022/03/30 09:51:59;;;;;;;12.13;5.97;;;;;;;23.19;20.04;98980.13;2342911;82;25344;-73
2022/03/30 09:55:21;;;;;;;10.63;5.20;;;;;;;22.55;20.25;98970.36;2375408;82;25702;-79
2022/03/30 09:58:51;;;;;;;12.78;5.33;;;;;;;22.95;20.89;98975.09;2387072;81;25630;-77
2022/03/30 10:02:16;;;;;;;11.30;4.87;;;;;;;23.52;20.50;98974.41;2403231;81;25605;-72
2022/03/30 10:05:39;;;;;;;9.95;5.60;;;;;;;23.20;23.07;98963.23;2434929;80;25929;-77
2022/03/30 10:09:09;;;;;;;14.60;5.75;;;;;;;23.27;24.89;98966.81;2413296;81;25620;-72
2022/03/30 10:12:34;;;;;;;10.15;5.37;;;;;;;22.97;23.03;98971.87;2433030;81;25647;-72
2022/03/30 10:15:58;;;;;;;8.93;3.95;;;;;;;22.49;25.11;98963.16;2432755;80;25561;-72
2022/03/30 10:19:25;;;;;;;13.48;4.45;;;;;;;22.46;23.76;98961.97;2429805;81;25593;-76
2022/03/30 10:23:27;;;;;;;10.58;4.20;;;;;;;22.06;23.27;98964.66;2431381;81;25622;-71
2022/03/30 10:27:30;;;;;;;18.42;5.10;;;;;;;21.95;23.04;98960.78;2431606;81;25542;-73
2022/03/30 10:31:03;;;;;;;11.05;4.12;;;;;;;21.96;21.93;98968.66;2403242;82;25706;-75
2022/03/30 10:34:32;;;;;;;8.63;4.50;;;;;;;21.87;22.03;98959.81;2403189;82;25750;-75
2022/03/30 10:37:59;;;;;;;11.33;4.97;;;;;;;22.71;21.81;98958.97;2399966;82;26008;-75
2022/03/30 10:41:41;;;;;;;13.00;4.70;;;;;;;22.72;22.11;98956.27;2375235;82;25908;-77
2022/03/30 10:45:05;;;;;;;11.30;4.50;;;;;;;22.53;23.11;98951.44;2384344;82;25751;-73
2022/03/30 10:48:41;;;;;;;12.28;5.10;;;;;;;22.63;25.18;98952.24;2289560;85;25806;-74
2022/03/30 10:52:39;;;;;;;11.20;5.67;;;;;;;22.63;25.01;98952.24;2270424;85;26511;-74
2022/03/30 10:56:24;;;;;;;7.47;4.45;;;;;;;22.40;24.96;98947.18;2267068;86;25742;-76
2022/03/30 11:00:06;;;;;;;7.22;3.85;;;;;;;22.48;25.35;98949.48;2309728;83;25649;-74
2022/03/30 11:03:34;;;;;;;10.80;4.80;;;;;;;22.00;25.18;98949.48;2305820;85;25758;-71
2022/03/30 11:07:36;;;;;;;11.20;4.42;;;;;;;22.05;24.30;98950.14;2318638;85;25725;-77
2022/03/30 11:10:50;;;;;;;8.70;3.60;;;;;;;21.87;25.87;98959.34;2299330;85;25812;-77
2022/03/30 11:14:37;;;;;;;8.80;4.30;;;;;;;21.83;25.78;98971.47;2288725;83;26676;-74
2022/03/30 11:18:22;;;;;;;8.53;4.55;;;;;;;21.65;25.84;98966.06;2337643;83;25751;-76
2022/03/30 11:22:33;;;;;;;13.25;4.92;;;;;;;21.38;25.79;98967.27;2380414;82;25650;-76
2022/03/30 11:26:01;;;;;;;11.75;4.55;;;;;;;21.03;23.81;98959.47;2327051;82;26029;-75
2022/03/30 11:29:55;;;;;;;11.35;4.30;;;;;;;20.69;23.66;98951.59;2327227;84;25756;-77
2022/03/30 11:33:26;;;;;;;10.35;4.28;;;;;;;20.75;23.47;98952.64;2327429;85;25243;-76
2022/03/30 11:40:31;;;;;;;10.72;4.37;;;;;;;20.38;23.19;98937.33;2130997;91;25798;-74
2022/03/30 11:47:55;;;;;;;8.65;4.95;;;;;;;20.07;23.13;98943.82;2066990;94;25783;-75
2022/03/30 11:51:22;;;;;;;8.83;4.30;;;;;;;20.17;23.04;98946.52;2067324;94;25716;-75
2022/03/30 11:54:50;;;;;;;12.43;4.53;;;;;;;20.08;23.18;98948.21;2072484;95;26014;-76
2022/03/30 11:58:30;;;;;;;10.88;4.67;;;;;;;19.79;23.11;98940.89;2035140;95;25906;-76
2022/03/30 12:01:55;;;;;;;9.55;4.55;;;;;;;20.14;23.42;98934.72;2045776;95;25913;-75
2022/03/30 12:05:39;;;;;;;10.10;4.55;;;;;;;20.19;23.07;98933.24;2078674;93;25342;-76
2022/03/30 12:08:59;;;;;;;6.53;4.22;;;;;;;20.01;22.98;98941.41;2079022;93;25698;-76
2022/03/30 12:12:40;;;;;;;7.10;3.75;;;;;;;19.69;23.02;98934.69;2214282;88;25794;-75
2022/03/30 12:16:11;;;;;;;5.42;3.52;;;;;;;19.44;23.10;98935.55;2241969;88;25835;-78
2022/03/30 12:19:32;;;;;;;9.45;4.12;;;;;;;19.24;23.23;98929.64;2242033;86;25754;-76
2022/03/30 12:23:12;;;;;;;6.53;4.00;;;;;;;19.07;23.31;98927.58;2242235;88;26469;-74
2022/03/30 12:26:31;;;;;;;7.95;4.08;;;;;;;18.96;23.29;98931.48;2241627;88;25777;-79
2022/03/30 12:30:00;;;;;;;9.33;3.50;;;;;;;18.78;23.56;98934.29;2220741;86;25812;-77
2022/03/30 12:33:24;;;;;;;8.50;4.12;;;;;;;18.72;23.63;98931.38;2164168;89;30590;-76
2022/03/30 12:36:53;;;;;;;7.12;3.33;;;;;;;18.59;23.62;98922.96;2164373;90;26498;-75
2022/03/30 12:40:20;;;;;;;8.80;3.85;;;;;;;18.47;23.67;98923.84;2212363;89;25733;-75
2022/03/30 12:43:45;;;;;;;8.38;3.65;;;;;;;18.33;23.58;98918.54;2213221;88;25689;-75
2022/03/30 12:47:38;;;;;;;8.03;3.25;;;;;;;18.17;23.75;98917.28;2213225;88;25787;-76
2022/03/30 12:51:10;;;;;;;12.40;3.58;;;;;;;17.97;23.83;98922.30;2213209;88;25811;-75
2022/03/30 12:54:36;;;;;;;8.50;3.65;;;;;;;17.93;24.00;98921.06;2210932;87;25723;-76
2022/03/30 12:58:28;;;;;;;4.47;3.58;;;;;;;18.02;24.00;98921.69;2257454;86;25936;-76
2022/03/30 13:01:53;;;;;;;8.43;3.65;;;;;;;18.09;23.84;98914.89;2257814;86;25672;-76
2022/03/30 13:05:25;;;;;;;9.15;3.47;;;;;;;18.07;23.83;98911.42;2234817;85;25930;-76
2022/03/30 13:09:34;;;;;;;;;;;;;;;;;;;;;
2022/03/30 13:13:01;;;;;;;7.58;3.17;;;;;;;18.10;23.95;98914.42;2030351;95;25846;-75
2022/03/30 13:16:29;;;;;;;5.05;3.45;;;;;;;18.12;23.94;98912.59;2035944;95;26249;-78
2022/03/30 13:20:12;;;;;;;12.68;3.75;;;;;;;17.86;23.82;98918.20;2023623;97;25852;-74
2022/03/30 13:23:52;;;;;;;12.07;4.00;;;;;;;17.55;23.94;98922.58;2037553;95;25817;-75
2022/03/30 13:27:18;;;;;;;14.65;3.58;;;;;;;17.40;24.20;98912.88;2024914;96;25949;-74
2022/03/30 13:30:39;;;;;;;4.17;3.12;;;;;;;17.36;24.30;98917.83;2042958;95;25793;-76
2022/03/30 13:34:10;;;;;;;12.75;3.92;;;;;;;17.25;24.31;98909.37;2042814;96;26106;-76
2022/03/30 13:37:33;;;;;;;8.35;3.20;;;;;;;17.12;24.29;98915.87;2042472;95;25725;-75
2022/03/30 13:40:56;;;;;;;7.08;3.85;;;;;;;16.89;24.32;98916.45;2042665;95;25830;-75
2022/03/30 13:44:24;;;;;;;6.15;3.30;;;;;;;16.76;24.47;98908.00;2145459;90;30941;-77
2022/03/30 13:47:56;;;;;;;7.67;3.52;;;;;;;16.65;24.62;98912.19;2155991;90;25700;-79
2022/03/30 13:51:20;;;;;;;10.48;3.35;;;;;;;16.59;24.73;98905.75;2152491;91;25801;-81
2022/03/30 13:55:35;;;;;;;10.68;3.77;;;;;;;16.43;24.84;98907.88;2151595;90;25783;-82
2022/03/30 13:59:12;;;;;;;17.00;3.47;;;;;;;16.31;25.02;98904.70;2214836;87;25794;-77
2022/03/30 14:02:33;;;;;;;4.70;3.27;;;;;;;16.30;25.13;98897.27;2231420;87;25798;-78
2022/03/30 14:05:54;;;;;;;5.53;3.25;;;;;;;16.34;25.07;98905.48;2218922;87;30823;-77
2022/03/30 14:09:28;;;;;;;6.70;3.45;;;;;;;16.40;25.16;98905.77;2288918;84;30846;-77
2022/03/30 14:13:01;;;;;;;6.87;3.05;;;;;;;16.42;25.09;98901.35;2313356;85;25880;-76
2022/03/30 14:16:22;;;;;;;11.50;3.02;;;;;;;16.40;25.04;98892.20;2326988;83;25840;-76
2022/03/30 14:19:43;;;;;;;7.87;3.00;;;;;;;16.42;25.00;98889.52;2390033;82;25572;-78
2022/03/30 14:23:18;;;;;;;5.75;3.35;;;;;;;16.28;25.05;98889.84;2392716;82;30911;-77
2022/03/30 14:26:43;;;;;;;13.00;4.28;;;;;;;16.25;25.19;98892.55;2392321;82;25854;-76
2022/03/30 14:30:08;;;;;;;6.75;2.80;;;;;;;16.19;25.07;98888.73;2391866;82;25185;-77
2022/03/30 14:33:34;;;;;;;9.23;2.87;;;;;;;16.12;25.12;98892.41;2392733;82;25749;-76
2022/03/30 14:40:21;;;;;;;8.23;3.22;;;;;;;16.07;25.22;98875.89;2217072;88;25821;-78
2022/03/30 14:43:54;;;;;;;4.30;2.98;;;;;;;15.97;25.33;98874.78;2217558;88;25761;-75
2022/03/30 14:47:17;;;;;;;11.38;4.10;;;;;;;15.77;25.26;98873.04;2216967;88;25852;-77
2022/03/30 14:50:43;;;;;;;7.58;3.20;;;;;;;15.67;25.50;98874.14;2216856;87;25730;-76
2022/03/30 14:54:08;;;;;;;5.67;2.98;;;;;;;15.59;25.54;98876.45;2197130;88;25748;-78
2022/03/30 14:57:31;;;;;;;6.33;3.37;;;;;;;15.45;25.62;98871.90;2224164;87;25922;-78
2022/03/30 15:00:53;;;;;;;9.85;3.37;;;;;;;15.42;25.67;98867.16;2231935;87;25319;-78
2022/03/30 15:04:16;;;;;;;8.98;3.45;;;;;;;15.43;25.66;98865.84;2152670;91;25756;-77
2022/03/30 15:07:37;;;;;;;8.73;3.22;;;;;;;15.45;25.77;98860.08;2146441;90;31660;-77
2022/03/30 15:11:03;;;;;;;8.70;3.40;;;;;;;15.47;25.83;98862.70;2147348;91;31523;-76
2022/03/30 15:14:34;;;;;;;5.80;2.92;;;;;;;15.48;25.85;98860.48;2145885;91;26478;-76
2022/03/30 15:18:01;;;;;;;6.90;3.98;;;;;;;15.45;25.95;98855.28;2143750;91;25643;-77
2022/03/30 15:21:29;;;;;;;8.38;3.55;;;;;;;15.44;25.86;98850.94;2139132;92;25846;-77
2022/03/30 15:25:03;;;;;;;7.25;3.72;;;;;;;15.37;25.81;98854.59;2147742;90;25834;-77
2022/03/30 15:28:31;;;;;;;8.80;3.98;;;;;;;15.38;25.98;98850.61;2133878;90;26000;-78
2022/03/30 15:32:06;;;;;;;7.47;3.40;;;;;;;15.37;25.88;98853.28;2183188;87;25977;-76
2022/03/30 15:35:42;;;;;;;9.83;3.70;;;;;;;15.32;26.01;98855.97;2195331;85;25782;-77
2022/03/30 15:39:38;;;;;;;6.30;3.17;;;;;;;15.27;25.86;98853.91;2309913;85;26097;-77
2022/03/30 15:43:15;;;;;;;10.85;3.60;;;;;;;15.15;25.82;98858.07;2302000;85;25719;-78
2022/03/30 15:46:36;;;;;;;6.22;3.10;;;;;;;15.13;25.82;98863.81;2304650;85;25654;-77
2022/03/30 15:50:12;;;;;;;11.88;3.58;;;;;;;15.03;25.79;98853.94;2305971;85;30912;-75
2022/03/30 15:53:44;;;;;;;6.92;3.05;;;;;;;14.95;25.95;98856.71;2359012;82;25689;-76
2022/03/30 15:57:13;;;;;;;13.95;3.27;;;;;;;14.93;25.86;98853.23;2361365;83;25786;-75
2022/03/30 16:00:53;;;;;;;5.15;3.00;;;;;;;14.71;25.99;98852.75;2380957;82;25670;-76
2022/03/30 16:04:46;;;;;;;4.40;2.87;;;;;;;14.46;26.32;98843.10;2378629;82;25749;-76
2022/03/30 16:16:22;;;;;;;;;;;;;;;;;;;;;
2022/03/30 16:19:50;;;;;;;8.45;2.90;;;;;;;14.13;26.76;98855.84;2272760;85;25962;-76
2022/03/30 16:23:27;;;;;;;3.10;2.55;;;;;;;14.13;26.72;98861.54;2273318;84;25820;-76
2022/03/30 16:27:10;;;;;;;6.22;2.92;;;;;;;14.11;26.67;98856.34;2279753;85;25739;-77
2022/03/30 16:30:57;;;;;;;8.53;3.00;;;;;;;14.04;26.67;98857.32;2271451;85;25823;-76
2022/03/30 16:34:33;;;;;;;5.35;2.72;;;;;;;14.01;26.68;98860.44;2190190;90;25786;-75
2022/03/30 16:42:16;;;;;;;6.92;2.42;;;;;;;13.87;26.73;98859.29;2174791;90;26489;-77
2022/03/30 16:45:54;;;;;;;8.68;3.27;;;;;;;13.77;26.84;98860.31;2206888;89;25766;-75
2022/03/30 16:49:30;;;;;;;7.87;3.47;;;;;;;13.68;26.92;98863.94;2207436;89;25898;-76
2022/03/30 16:53:15;;;;;;;7.72;3.17;;;;;;;13.62;26.98;98860.94;2207924;89;25829;-75
2022/03/30 16:56:57;;;;;;;8.83;3.17;;;;;;;13.55;26.95;98859.30;2214195;88;25620;-76
2022/03/30 17:00:34;;;;;;;8.65;3.50;;;;;;;13.49;26.97;98861.12;2081105;93;25810;-76
2022/03/30 17:04:07;;;;;;;6.67;3.12;;;;;;;13.41;27.13;98869.94;2081748;93;25774;-77
2022/03/30 17:11:53;;;;;;;12.28;3.45;;;;;;;13.20;27.83;98875.41;2026821;96;25812;-77
2022/03/30 17:15:22;;;;;;;4.53;3.77;;;;;;;13.12;28.35;98885.06;2036080;95;26122;-77
2022/03/30 17:19:06;;;;;;;6.28;4.12;;;;;;;13.04;28.80;98886.47;1993288;98;25831;-77
2022/03/30 17:22:43;;;;;;;9.08;3.92;;;;;;;12.93;29.30;98883.96;1950787;100;25769;-76
2022/03/30 17:26:14;;;;;;;7.42;3.45;;;;;;;12.84;29.70;98884.48;1936694;99;25798;-77
2022/03/30 17:30:09;;;;;;;10.43;3.58;;;;;;;12.86;31.13;98894.06;1980002;98;25338;-75
2022/03/30 17:33:47;;;;;;;6.95;3.20;;;;;;;13.15;31.25;98895.50;2006946;97;25735;-77
2022/03/30 17:37:29;;;;;;;7.83;3.08;;;;;;;13.41;31.56;98900.05;1998307;96;26147;-75
2022/03/30 17:40:53;;;;;;;7.53;3.75;;;;;;;13.57;31.78;98902.49;2031844;96;25810;-77
2022/03/30 17:44:34;;;;;;;7.60;3.62;;;;;;;13.68;31.72;98907.14;2019028;98;25723;-73
2022/03/30 17:52:06;;;;;;;;;;;;;;;13.73;31.76;98911.00;2003524;96;25752;-75
2022/03/30 17:55:37;;;;;;;7.15;4.10;;;;;;;13.73;31.86;98916.23;1951149;99;25765;-74
2022/03/30 17:59:09;;;;;;;9.33;4.40;;;;;;;13.72;31.86;98918.44;1992921;99;25935;-77
2022/03/30 18:02:43;;;;;;;10.18;3.25;;;;;;;13.71;31.89;98917.58;1982078;98;25767;-74
2022/03/30 18:06:04;;;;;;;16.02;3.92;;;;;;;13.66;31.99;98922.86;1982818;92;25855;-74
2022/03/30 18:09:30;;;;;;;6.22;3.58;;;;;;;13.63;32.05;98932.05;2149484;91;30974;-74
2022/03/30 18:12:51;;;;;;;7.45;3.98;;;;;;;13.59;32.16;98934.30;2106146;91;25738;-76
2022/03/30 18:16:39;;;;;;;11.55;4.28;;;;;;;13.58;32.34;98935.63;2097049;93;26056;-73
2022/03/30 18:20:11;;;;;;;;;;;;;;;;;;;;;
2022/03/30 18:23:35;;;;;;;7.78;4.45;;;;;;;13.53;32.54;98941.34;2103666;91;25914;-74
2022/03/30 18:27:05;;;;;;;7.17;4.28;;;;;;;13.46;32.69;98945.79;2148493;91;25778;-75
2022/03/30 18:31:01;;;;;;;8.03;5.15;;;;;;;13.43;32.84;98946.71;2174913;90;25697;-75
2022/03/30 18:34:45;;;;;;;5.80;3.22;;;;;;;13.39;32.95;98950.22;2198570;88;26554;-73
2022/03/30 18:38:19;;;;;;;5.15;3.85;;;;;;;13.34;33.10;98949.42;2230740;88;25763;-74